WetterOnline ( http://www.wetteronline.de )

Wetter aktuell Idar-Oberstein

Aktuelles Wetter: Tholey (398m)

6-stündlich | Neueste Meldungen
Ortszeit Temperatur Wetter
Di, 18.09. 20:00 25.3° C leicht bewölkt
Di, 18.09. 14:00 26.1° C leicht bewölkt
Di, 18.09. 8:00 17.0° C wolkenlos
Di, 18.09. 2:00 19.3° C wolkenlos
Mo, 17.09. 20:00 22.9° C wolkig
Mo, 17.09. 14:00 25.0° C leicht bewölkt
Mo, 17.09. 8:00 13.2° C fast wolkenlos
Mo, 17.09. 2:00 16.4° C wolkig
Ortszeit Temperatur Wetter
Di, 18.09. 21:00 24.3° C wolkenlos
Di, 18.09. 20:50 24.3° C wolkenlos
Di, 18.09. 20:40 24.4° C wolkenlos
Di, 18.09. 20:30 24.5° C fast wolkenlos
Di, 18.09. 20:20 24.5° C fast wolkenlos
Di, 18.09. 20:10 24.7° C leicht bewölkt
Di, 18.09. 20:00 25.3° C leicht bewölkt
Di, 18.09. 19:30 26.4° C wolkig
Di, 18.09. 19:00 27.4° C wolkig
Di, 18.09. 18:30 27.6° C wolkig
Di, 18.09. 18:00 27.8° C leicht bewölkt
Ortszeit Relative Feuchte Sichtweite
Di, 18.09. 20:00 43% 55 km
Di, 18.09. 14:00 48% 18 km
Di, 18.09. 8:00 58% 45 km
Di, 18.09. 2:00 49% 70 km
Mo, 17.09. 20:00 35% 70 km
Mo, 17.09. 14:00 36% 29 km
Mo, 17.09. 8:00 76% 25 km
Mo, 17.09. 2:00 61% 50 km
Ortszeit Relative Feuchte Sichtweite
Di, 18.09. 21:00 41% 70 km
Di, 18.09. 20:50 41% -
Di, 18.09. 20:40 41% -
Di, 18.09. 20:30 43% 65 km
Di, 18.09. 20:20 43% -
Di, 18.09. 20:10 43% -
Di, 18.09. 20:00 43% 55 km
Di, 18.09. 19:30 41% 50 km
Di, 18.09. 19:00 38% 45 km
Di, 18.09. 18:30 41% 50 km
Di, 18.09. 18:00 38% 35 km
Ortszeit Niederschlagsmenge Niederschlagsart
Di, 18.09. 20:00 0.0 l/m2 in 12 Std. -
Di, 18.09. 14:00 0.0 l/m2 in 6 Std. -
Di, 18.09. 8:00 0.0 l/m2 in 12 Std. -
Di, 18.09. 2:00 0.0 l/m2 in 6 Std. -
Mo, 17.09. 20:00 0.0 l/m2 in 12 Std. -
Mo, 17.09. 14:00 0.0 l/m2 in 6 Std. -
Mo, 17.09. 8:00 0.0 l/m2 in 12 Std. -
Mo, 17.09. 2:00 0.0 l/m2 in 6 Std. -
Ortszeit Niederschlagsmenge Niederschlagsart
Di, 18.09. 21:00 0.0 l/m2 in 1 Std. -
Di, 18.09. 20:50 keine Meldung -
Di, 18.09. 20:40 keine Meldung -
Di, 18.09. 20:30 0.0 l/m2 in 1 Std. -
Di, 18.09. 20:20 keine Meldung -
Di, 18.09. 20:10 keine Meldung -
Di, 18.09. 20:00 0.0 l/m2 in 1 Std. -
Di, 18.09. 19:30 0.0 l/m2 in 1 Std. -
Di, 18.09. 19:00 0.0 l/m2 in 1 Std. -
Di, 18.09. 18:30 0.0 l/m2 in 1 Std. -
Di, 18.09. 18:00 0.0 l/m2 in 1 Std. -
Ortszeit Stärke Spitze Richtung
km/h Bft. km/h Grad Sektor
Di, 18.09. 20:00 9 2 37 270° W
Di, 18.09. 14:00 17 3 26 240° SW
Di, 18.09. 8:00 6 1 13 70° O
Di, 18.09. 2:00 9 2 17 50° NO
Mo, 17.09. 20:00 7 2 25 100° O
Mo, 17.09. 14:00 13 3 24 170° S
Mo, 17.09. 8:00 7 2 11 70° O
Mo, 17.09. 2:00 7 2 7 60° NO
Ortszeit Stärke Spitze Richtung
km/h Bft. km/h Grad Sektor
Di, 18.09. 21:00 19 3 30 290° W
Di, 18.09. 20:50 19 3 - 290° W
Di, 18.09. 20:40 18 3 - 290° W
Di, 18.09. 20:30 11 2 19 280° W
Di, 18.09. 20:20 11 2 - 280° W
Di, 18.09. 20:10 11 2 - 270° W
Di, 18.09. 20:00 9 2 26 270° W
Di, 18.09. 19:30 15 3 26 260° W
Di, 18.09. 19:00 14 3 29 270° W
Di, 18.09. 18:30 17 3 30 250° W
Di, 18.09. 18:00 14 3 36 260° W
Ortszeit Untergrenze Bedeckung Gattung
total tief tief mittel hoch
Di, 18.09. 20:00 8400 m 6/8 0/8 - - -
Di, 18.09. 14:00 6300 m 3/8 3/8 - - -
Di, 18.09. 8:00 - 0/8 0/8 - - -
Di, 18.09. 2:00 - 0/8 0/8 - - -
Mo, 17.09. 20:00 10500 m 8/8 0/8 - - -
Mo, 17.09. 14:00 10500 m 7/8 0/8 - - -
Mo, 17.09. 8:00 10500 m 2/8 0/8 - - -
Mo, 17.09. 2:00 10500 m 7/8 0/8 - - -
Ortszeit Bedeckungsgrad in Achtel und Wolkenuntergrenze
Di, 18.09. 21:00 keine Wolken
Di, 18.09. 20:50 keine Wolken
Di, 18.09. 20:40 keine Wolken
Di, 18.09. 20:30 2(8400m)
Di, 18.09. 20:20 2(8400m)
Di, 18.09. 20:10 5(8400m)
Di, 18.09. 20:00 6(8400m)
Di, 18.09. 19:30 1(5100m) 8(8100m) 8(9000m)
Di, 18.09. 19:00 7(4500m) 8(7200m) 8(8400m)
Di, 18.09. 18:30 8(7500m) 7(7500m) 8(8100m)
Di, 18.09. 18:00 1(1800m) 8(7500m)
Ortszeit Luftdruck NN (hPa) Tendenz (hPa in 3 Std.)
Di, 18.09. 20:00 1015 + 0,6
Di, 18.09. 14:00 1015 - 0,2
Di, 18.09. 8:00 1016 + 0,3
Di, 18.09. 2:00 1016 - 0,6
Mo, 17.09. 20:00 1016 - 1,0
Mo, 17.09. 14:00 1019 - 1,2
Mo, 17.09. 8:00 1021 + 0,4
Mo, 17.09. 2:00 1021 - 0,2
Ortszeit Luftdruck NN (hPa) Tendenz (hPa in 3 Std.)
Di, 18.09. 21:00 1016 + 1,1
Di, 18.09. 20:50 1016 keine Meldung
Di, 18.09. 20:40 1015 keine Meldung
Di, 18.09. 20:30 1015 + 1,0
Di, 18.09. 20:20 1015 keine Meldung
Di, 18.09. 20:10 1015 keine Meldung
Di, 18.09. 20:00 1015 + 0,6
Di, 18.09. 19:30 1014 + 0,3
Di, 18.09. 19:00 1014 - 0,2
Di, 18.09. 18:30 1014 - 0,3
Di, 18.09. 18:00 1014 - 0,4
Ortszeit Schneehöhe (cm)
Di, 18.09. 20:00 -
Di, 18.09. 14:00 -
Di, 18.09. 8:00 -
Di, 18.09. 2:00 -
Mo, 17.09. 20:00 -
Mo, 17.09. 14:00 -
Mo, 17.09. 8:00 -
Mo, 17.09. 2:00 -
Ortszeit Schneehöhe (cm)
Di, 18.09. 21:00 -
Di, 18.09. 20:50 -
Di, 18.09. 20:40 -
Di, 18.09. 20:30 -
Di, 18.09. 20:20 -
Di, 18.09. 20:10 -
Di, 18.09. 20:00 -
Di, 18.09. 19:30 -
Di, 18.09. 19:00 -
Di, 18.09. 18:30 -
Di, 18.09. 18:00 -
Link zu dieser Seite / Seite empfehlen

Das Wetter in ...